sensor_id;sensor_type;location;lat;lon;timestamp;temperature;humidity
37204;DHT22;23098;48.054;10.636;2023-10-13T00:00:33;18.80;74.60
37204;DHT22;23098;48.054;10.636;2023-10-13T00:03:09;18.70;75.00
37204;DHT22;23098;48.054;10.636;2023-10-13T00:05:44;18.60;74.90
37204;DHT22;23098;48.054;10.636;2023-10-13T00:08:10;18.60;75.20
37204;DHT22;23098;48.054;10.636;2023-10-13T00:10:36;18.50;75.50
37204;DHT22;23098;48.054;10.636;2023-10-13T00:13:02;18.40;75.30
37204;DHT22;23098;48.054;10.636;2023-10-13T00:15:46;18.40;75.70
37204;DHT22;23098;48.054;10.636;2023-10-13T00:18:27;18.30;75.60
37204;DHT22;23098;48.054;10.636;2023-10-13T00:20:58;18.30;75.80
37204;DHT22;23098;48.054;10.636;2023-10-13T00:23:24;18.20;76.10
37204;DHT22;23098;48.054;10.636;2023-10-13T00:25:53;18.10;76.20
37204;DHT22;23098;48.054;10.636;2023-10-13T00:28:29;18.10;76.00
37204;DHT22;23098;48.054;10.636;2023-10-13T00:31:01;18.00;76.20
37204;DHT22;23098;48.054;10.636;2023-10-13T00:33:38;17.90;76.20
37204;DHT22;23098;48.054;10.636;2023-10-13T00:36:06;17.90;76.30
37204;DHT22;23098;48.054;10.636;2023-10-13T00:38:34;17.90;76.30
37204;DHT22;23098;48.054;10.636;2023-10-13T00:41:00;17.80;76.50
37204;DHT22;23098;48.054;10.636;2023-10-13T00:43:45;17.80;76.40
37204;DHT22;23098;48.054;10.636;2023-10-13T00:46:11;17.70;76.30
37204;DHT22;23098;48.054;10.636;2023-10-13T00:48:40;17.60;76.70
37204;DHT22;23098;48.054;10.636;2023-10-13T00:51:19;17.50;76.90
37204;DHT22;23098;48.054;10.636;2023-10-13T00:54:09;17.50;77.10
37204;DHT22;23098;48.054;10.636;2023-10-13T00:56:41;17.30;77.50
37204;DHT22;23098;48.054;10.636;2023-10-13T00:59:43;17.20;77.80
37204;DHT22;23098;48.054;10.636;2023-10-13T01:02:12;17.10;78.00
37204;DHT22;23098;48.054;10.636;2023-10-13T01:04:56;17.10;77.90
37204;DHT22;23098;48.054;10.636;2023-10-13T01:07:22;17.00;78.20
37204;DHT22;23098;48.054;10.636;2023-10-13T01:09:48;17.00;77.90
37204;DHT22;23098;48.054;10.636;2023-10-13T01:12:14;17.00;78.20
37204;DHT22;23098;48.054;10.636;2023-10-13T01:14:40;17.00;78.00
37204;DHT22;23098;48.054;10.636;2023-10-13T01:17:05;16.90;78.10
37204;DHT22;23098;48.054;10.636;2023-10-13T01:19:36;16.90;78.10
37204;DHT22;23098;48.054;10.636;2023-10-13T01:22:04;16.80;78.10
37204;DHT22;23098;48.054;10.636;2023-10-13T01:24:32;16.70;78.90
37204;DHT22;23098;48.054;10.636;2023-10-13T01:27:00;16.70;78.40
37204;DHT22;23098;48.054;10.636;2023-10-13T01:29:43;16.80;77.80
37204;DHT22;23098;48.054;10.636;2023-10-13T01:32:14;16.80;78.20
37204;DHT22;23098;48.054;10.636;2023-10-13T01:34:40;16.70;78.70
37204;DHT22;23098;48.054;10.636;2023-10-13T01:37:05;16.60;79.20
37204;DHT22;23098;48.054;10.636;2023-10-13T01:39:31;16.40;79.80
37204;DHT22;23098;48.054;10.636;2023-10-13T01:41:57;16.30;80.50
37204;DHT22;23098;48.054;10.636;2023-10-13T01:44:24;16.10;81.30
37204;DHT22;23098;48.054;10.636;2023-10-13T01:46:49;15.90;81.30
37204;DHT22;23098;48.054;10.636;2023-10-13T01:49:16;15.80;82.50
37204;DHT22;23098;48.054;10.636;2023-10-13T01:51:42;15.60;83.80
37204;DHT22;23098;48.054;10.636;2023-10-13T01:54:08;15.50;84.20
37204;DHT22;23098;48.054;10.636;2023-10-13T01:56:40;15.40;83.90
37204;DHT22;23098;48.054;10.636;2023-10-13T01:59:13;15.30;84.20
37204;DHT22;23098;48.054;10.636;2023-10-13T02:01:39;15.20;84.50
37204;DHT22;23098;48.054;10.636;2023-10-13T02:04:05;15.10;84.00
37204;DHT22;23098;48.054;10.636;2023-10-13T02:06:35;15.00;85.40
37204;DHT22;23098;48.054;10.636;2023-10-13T02:09:08;15.00;85.00
37204;DHT22;23098;48.054;10.636;2023-10-13T02:11:51;14.90;85.00
37204;DHT22;23098;48.054;10.636;2023-10-13T02:14:20;14.80;85.30
37204;DHT22;23098;48.054;10.636;2023-10-13T02:16:51;14.80;85.20
37204;DHT22;23098;48.054;10.636;2023-10-13T02:19:21;14.70;85.30
37204;DHT22;23098;48.054;10.636;2023-10-13T02:21:47;14.60;85.80
37204;DHT22;23098;48.054;10.636;2023-10-13T02:24:24;14.60;85.60
37204;DHT22;23098;48.054;10.636;2023-10-13T02:26:55;14.60;85.20
37204;DHT22;23098;48.054;10.636;2023-10-13T02:29:21;14.70;86.10
37204;DHT22;23098;48.054;10.636;2023-10-13T02:31:47;14.60;85.00
37204;DHT22;23098;48.054;10.636;2023-10-13T02:34:20;14.60;85.10
37204;DHT22;23098;48.054;10.636;2023-10-13T02:36:48;14.50;85.00
37204;DHT22;23098;48.054;10.636;2023-10-13T02:39:18;14.40;85.90
37204;DHT22;23098;48.054;10.636;2023-10-13T02:41:50;14.40;86.30
37204;DHT22;23098;48.054;10.636;2023-10-13T02:44:16;14.30;86.30
37204;DHT22;23098;48.054;10.636;2023-10-13T02:46:57;14.20;86.40
37204;DHT22;23098;48.054;10.636;2023-10-13T02:49:24;14.10;87.50
37204;DHT22;23098;48.054;10.636;2023-10-13T02:51:51;14.10;87.80
37204;DHT22;23098;48.054;10.636;2023-10-13T02:54:19;13.90;87.80
37204;DHT22;23098;48.054;10.636;2023-10-13T02:56:45;13.90;88.20
37204;DHT22;23098;48.054;10.636;2023-10-13T02:59:28;13.80;88.30
37204;DHT22;23098;48.054;10.636;2023-10-13T03:02:04;13.80;89.10
37204;DHT22;23098;48.054;10.636;2023-10-13T03:04:57;13.70;89.30
37204;DHT22;23098;48.054;10.636;2023-10-13T03:07:25;13.70;88.80
37204;DHT22;23098;48.054;10.636;2023-10-13T03:09:54;13.60;89.10
37204;DHT22;23098;48.054;10.636;2023-10-13T03:12:23;13.60;89.70
37204;DHT22;23098;48.054;10.636;2023-10-13T03:14:50;13.50;89.70
37204;DHT22;23098;48.054;10.636;2023-10-13T03:17:22;13.50;90.00
37204;DHT22;23098;48.054;10.636;2023-10-13T03:19:59;13.50;88.70
37204;DHT22;23098;48.054;10.636;2023-10-13T03:22:25;13.50;88.40
37204;DHT22;23098;48.054;10.636;2023-10-13T03:24:58;13.50;88.80
37204;DHT22;23098;48.054;10.636;2023-10-13T03:27:31;13.50;89.00
37204;DHT22;23098;48.054;10.636;2023-10-13T03:30:20;13.60;88.30
37204;DHT22;23098;48.054;10.636;2023-10-13T03:32:47;13.60;87.80
37204;DHT22;23098;48.054;10.636;2023-10-13T03:35:20;13.70;87.70
37204;DHT22;23098;48.054;10.636;2023-10-13T03:37:50;13.70;87.40
37204;DHT22;23098;48.054;10.636;2023-10-13T03:40:15;13.80;87.60
37204;DHT22;23098;48.054;10.636;2023-10-13T03:42:59;13.70;87.30
37204;DHT22;23098;48.054;10.636;2023-10-13T03:45:51;13.70;87.60
37204;DHT22;23098;48.054;10.636;2023-10-13T03:48:33;13.60;87.80
37204;DHT22;23098;48.054;10.636;2023-10-13T03:51:06;13.60;87.90
37204;DHT22;23098;48.054;10.636;2023-10-13T03:53:41;13.60;88.30
37204;DHT22;23098;48.054;10.636;2023-10-13T03:56:21;13.60;88.40
37204;DHT22;23098;48.054;10.636;2023-10-13T03:58:54;13.50;88.40
37204;DHT22;23098;48.054;10.636;2023-10-13T04:01:20;13.40;88.70
37204;DHT22;23098;48.054;10.636;2023-10-13T04:04:00;13.40;88.60
37204;DHT22;23098;48.054;10.636;2023-10-13T04:06:33;13.30;88.90
37204;DHT22;23098;48.054;10.636;2023-10-13T04:09:15;13.20;88.90
37204;DHT22;23098;48.054;10.636;2023-10-13T04:11:59;13.20;89.00
37204;DHT22;23098;48.054;10.636;2023-10-13T04:14:45;13.20;89.20
37204;DHT22;23098;48.054;10.636;2023-10-13T04:17:29;13.20;88.80
37204;DHT22;23098;48.054;10.636;2023-10-13T04:20:00;13.20;89.00
37204;DHT22;23098;48.054;10.636;2023-10-13T04:22:49;13.20;89.00
37204;DHT22;23098;48.054;10.636;2023-10-13T04:25:25;13.20;89.20
37204;DHT22;23098;48.054;10.636;2023-10-13T04:28:21;13.20;89.30
37204;DHT22;23098;48.054;10.636;2023-10-13T04:30:52;13.20;89.80
37204;DHT22;23098;48.054;10.636;2023-10-13T04:33:23;13.10;89.90
37204;DHT22;23098;48.054;10.636;2023-10-13T04:36:14;13.10;89.80
37204;DHT22;23098;48.054;10.636;2023-10-13T04:38:55;13.00;90.10
37204;DHT22;23098;48.054;10.636;2023-10-13T04:41:32;13.00;90.00
37204;DHT22;23098;48.054;10.636;2023-10-13T04:44:07;13.00;90.00
37204;DHT22;23098;48.054;10.636;2023-10-13T04:46:52;13.00;89.90
37204;DHT22;23098;48.054;10.636;2023-10-13T04:49:22;13.00;89.50
37204;DHT22;23098;48.054;10.636;2023-10-13T04:52:04;13.00;89.60
37204;DHT22;23098;48.054;10.636;2023-10-13T04:54:40;13.00;89.20
37204;DHT22;23098;48.054;10.636;2023-10-13T04:57:20;13.10;88.90
37204;DHT22;23098;48.054;10.636;2023-10-13T05:00:03;13.10;88.80
37204;DHT22;23098;48.054;10.636;2023-10-13T05:02:32;13.10;89.00
37204;DHT22;23098;48.054;10.636;2023-10-13T05:05:01;13.00;89.40
37204;DHT22;23098;48.054;10.636;2023-10-13T05:07:39;13.00;89.40
37204;DHT22;23098;48.054;10.636;2023-10-13T05:10:24;13.00;89.70
37204;DHT22;23098;48.054;10.636;2023-10-13T05:13:08;12.90;90.00
37204;DHT22;23098;48.054;10.636;2023-10-13T05:15:52;12.80;89.90
37204;DHT22;23098;48.054;10.636;2023-10-13T05:18:36;12.80;90.10
37204;DHT22;23098;48.054;10.636;2023-10-13T05:21:20;12.70;90.20
37204;DHT22;23098;48.054;10.636;2023-10-13T05:24:05;12.70;90.10
37204;DHT22;23098;48.054;10.636;2023-10-13T05:26:49;12.70;90.00
37204;DHT22;23098;48.054;10.636;2023-10-13T05:29:33;12.70;90.00
37204;DHT22;23098;48.054;10.636;2023-10-13T05:32:19;12.70;89.70
37204;DHT22;23098;48.054;10.636;2023-10-13T05:35:03;12.70;89.80
37204;DHT22;23098;48.054;10.636;2023-10-13T05:37:47;12.80;89.60
37204;DHT22;23098;48.054;10.636;2023-10-13T05:40:31;12.90;89.60
37204;DHT22;23098;48.054;10.636;2023-10-13T05:43:15;12.80;89.50
37204;DHT22;23098;48.054;10.636;2023-10-13T05:46:04;12.80;89.60
37204;DHT22;23098;48.054;10.636;2023-10-13T05:48:48;12.80;89.70
37204;DHT22;23098;48.054;10.636;2023-10-13T05:51:29;12.80;89.50
37204;DHT22;23098;48.054;10.636;2023-10-13T05:54:02;12.80;89.70
37204;DHT22;23098;48.054;10.636;2023-10-13T05:56:40;12.90;90.00
37204;DHT22;23098;48.054;10.636;2023-10-13T05:59:26;12.90;89.10
37204;DHT22;23098;48.054;10.636;2023-10-13T06:02:10;12.90;89.00
37204;DHT22;23098;48.054;10.636;2023-10-13T06:04:54;13.00;88.40
37204;DHT22;23098;48.054;10.636;2023-10-13T06:07:38;13.20;88.50
37204;DHT22;23098;48.054;10.636;2023-10-13T06:10:22;13.20;88.30
37204;DHT22;23098;48.054;10.636;2023-10-13T06:13:07;13.20;88.20
37204;DHT22;23098;48.054;10.636;2023-10-13T06:15:52;13.30;88.80
37204;DHT22;23098;48.054;10.636;2023-10-13T06:18:36;13.40;87.10
37204;DHT22;23098;48.054;10.636;2023-10-13T06:21:21;13.40;87.30
37204;DHT22;23098;48.054;10.636;2023-10-13T06:24:06;13.40;87.30
37204;DHT22;23098;48.054;10.636;2023-10-13T06:26:51;13.50;87.10
37204;DHT22;23098;48.054;10.636;2023-10-13T06:29:35;13.50;87.20
37204;DHT22;23098;48.054;10.636;2023-10-13T06:32:01;13.60;87.00
37204;DHT22;23098;48.054;10.636;2023-10-13T06:34:30;13.70;86.90
37204;DHT22;23098;48.054;10.636;2023-10-13T06:37:14;13.70;87.10
37204;DHT22;23098;48.054;10.636;2023-10-13T06:39:55;13.80;87.20
37204;DHT22;23098;48.054;10.636;2023-10-13T06:42:25;14.00;86.20
37204;DHT22;23098;48.054;10.636;2023-10-13T06:44:54;14.10;86.70
37204;DHT22;23098;48.054;10.636;2023-10-13T06:47:21;14.10;86.00
37204;DHT22;23098;48.054;10.636;2023-10-13T06:49:47;14.20;85.60
37204;DHT22;23098;48.054;10.636;2023-10-13T06:52:19;14.30;85.30
37204;DHT22;23098;48.054;10.636;2023-10-13T06:54:50;14.30;84.70
37204;DHT22;23098;48.054;10.636;2023-10-13T06:57:15;14.40;84.70
37204;DHT22;23098;48.054;10.636;2023-10-13T06:59:46;14.50;84.60
37204;DHT22;23098;48.054;10.636;2023-10-13T07:02:12;14.60;84.70
37204;DHT22;23098;48.054;10.636;2023-10-13T07:04:49;14.70;84.20
37204;DHT22;23098;48.054;10.636;2023-10-13T07:07:23;14.90;84.30
37204;DHT22;23098;48.054;10.636;2023-10-13T07:09:49;15.00;83.70
37204;DHT22;23098;48.054;10.636;2023-10-13T07:12:21;15.10;83.10
37204;DHT22;23098;48.054;10.636;2023-10-13T07:14:53;15.30;83.50
37204;DHT22;23098;48.054;10.636;2023-10-13T07:17:25;15.40;82.90
37204;DHT22;23098;48.054;10.636;2023-10-13T07:19:52;15.50;83.00
37204;DHT22;23098;48.054;10.636;2023-10-13T07:22:19;15.70;82.60
37204;DHT22;23098;48.054;10.636;2023-10-13T07:24:49;15.80;81.50
37204;DHT22;23098;48.054;10.636;2023-10-13T07:27:19;15.90;82.20
37204;DHT22;23098;48.054;10.636;2023-10-13T07:29:52;16.20;82.60
37204;DHT22;23098;48.054;10.636;2023-10-13T07:32:25;16.30;81.60
37204;DHT22;23098;48.054;10.636;2023-10-13T07:34:54;16.40;80.90
37204;DHT22;23098;48.054;10.636;2023-10-13T07:37:23;16.60;80.90
37204;DHT22;23098;48.054;10.636;2023-10-13T07:39:53;16.70;80.10
37204;DHT22;23098;48.054;10.636;2023-10-13T07:42:24;16.80;80.00
37204;DHT22;23098;48.054;10.636;2023-10-13T07:44:50;16.90;80.10
37204;DHT22;23098;48.054;10.636;2023-10-13T07:47:21;17.00;79.00
37204;DHT22;23098;48.054;10.636;2023-10-13T07:49:50;17.20;79.10
37204;DHT22;23098;48.054;10.636;2023-10-13T07:52:16;17.20;78.60
37204;DHT22;23098;48.054;10.636;2023-10-13T07:54:45;17.40;78.80
37204;DHT22;23098;48.054;10.636;2023-10-13T07:57:30;17.50;78.30
37204;DHT22;23098;48.054;10.636;2023-10-13T07:59:56;17.60;78.90
37204;DHT22;23098;48.054;10.636;2023-10-13T08:02:59;17.80;77.80
37204;DHT22;23098;48.054;10.636;2023-10-13T08:05:51;18.20;78.40
37204;DHT22;23098;48.054;10.636;2023-10-13T08:08:45;18.50;77.90
37204;DHT22;23098;48.054;10.636;2023-10-13T08:11:16;18.50;76.80
37204;DHT22;23098;48.054;10.636;2023-10-13T08:13:51;18.80;76.10
37204;DHT22;23098;48.054;10.636;2023-10-13T08:16:23;19.00;75.90
37204;DHT22;23098;48.054;10.636;2023-10-13T08:18:49;19.10;75.40
37204;DHT22;23098;48.054;10.636;2023-10-13T08:21:16;19.20;75.00
37204;DHT22;23098;48.054;10.636;2023-10-13T08:23:51;19.40;75.50
37204;DHT22;23098;48.054;10.636;2023-10-13T08:26:24;19.80;74.30
37204;DHT22;23098;48.054;10.636;2023-10-13T08:28:58;19.80;74.00
37204;DHT22;23098;48.054;10.636;2023-10-13T08:31:45;20.20;75.10
37204;DHT22;23098;48.054;10.636;2023-10-13T08:34:30;20.70;73.80
37204;DHT22;23098;48.054;10.636;2023-10-13T08:37:05;20.90;73.10
37204;DHT22;23098;48.054;10.636;2023-10-13T08:39:53;21.20;73.20
37204;DHT22;23098;48.054;10.636;2023-10-13T08:42:33;21.50;70.80
37204;DHT22;23098;48.054;10.636;2023-10-13T08:47:52;21.90;72.90
37204;DHT22;23098;48.054;10.636;2023-10-13T08:50:49;22.00;70.20
37204;DHT22;23098;48.054;10.636;2023-10-13T08:53:22;22.20;70.40
37204;DHT22;23098;48.054;10.636;2023-10-13T08:56:05;22.40;71.30
37204;DHT22;23098;48.054;10.636;2023-10-13T08:58:32;22.50;69.60
37204;DHT22;23098;48.054;10.636;2023-10-13T09:01:17;22.70;69.00
37204;DHT22;23098;48.054;10.636;2023-10-13T09:04:17;22.90;69.00
37204;DHT22;23098;48.054;10.636;2023-10-13T09:06:57;23.00;70.10
37204;DHT22;23098;48.054;10.636;2023-10-13T09:09:30;23.30;69.90
37204;DHT22;23098;48.054;10.636;2023-10-13T09:12:10;23.30;67.30
37204;DHT22;23098;48.054;10.636;2023-10-13T09:14:40;23.30;67.10
37204;DHT22;23098;48.054;10.636;2023-10-13T09:17:22;23.30;69.30
37204;DHT22;23098;48.054;10.636;2023-10-13T09:22:56;23.50;69.10
37204;DHT22;23098;48.054;10.636;2023-10-13T09:25:37;23.80;69.60
37204;DHT22;23098;48.054;10.636;2023-10-13T09:28:14;24.20;69.60
37204;DHT22;23098;48.054;10.636;2023-10-13T09:30:54;24.40;68.30
37204;DHT22;23098;48.054;10.636;2023-10-13T09:33:25;24.60;63.60
37204;DHT22;23098;48.054;10.636;2023-10-13T09:36:15;24.60;61.00
37204;DHT22;23098;48.054;10.636;2023-10-13T09:38:42;24.80;61.10
37204;DHT22;23098;48.054;10.636;2023-10-13T09:41:13;24.90;60.90
37204;DHT22;23098;48.054;10.636;2023-10-13T09:43:46;25.00;61.60
37204;DHT22;23098;48.054;10.636;2023-10-13T09:46:19;25.10;60.40
37204;DHT22;23098;48.054;10.636;2023-10-13T09:48:49;25.10;60.00
37204;DHT22;23098;48.054;10.636;2023-10-13T09:51:30;25.20;60.90
37204;DHT22;23098;48.054;10.636;2023-10-13T09:56:37;25.70;60.30
37204;DHT22;23098;48.054;10.636;2023-10-13T09:59:21;25.90;58.90
37204;DHT22;23098;48.054;10.636;2023-10-13T10:01:48;25.60;58.30
37204;DHT22;23098;48.054;10.636;2023-10-13T10:04:18;25.90;59.00
37204;DHT22;23098;48.054;10.636;2023-10-13T10:06:57;26.40;58.80
37204;DHT22;23098;48.054;10.636;2023-10-13T10:09:32;26.10;56.50
37204;DHT22;23098;48.054;10.636;2023-10-13T10:15:04;26.30;56.60
37204;DHT22;23098;48.054;10.636;2023-10-13T10:17:42;26.10;56.80
37204;DHT22;23098;48.054;10.636;2023-10-13T10:20:08;26.20;55.70
37204;DHT22;23098;48.054;10.636;2023-10-13T10:22:58;26.20;55.80
37204;DHT22;23098;48.054;10.636;2023-10-13T10:25:34;26.60;56.20
37204;DHT22;23098;48.054;10.636;2023-10-13T10:28:07;26.60;54.60
37204;DHT22;23098;48.054;10.636;2023-10-13T10:30:35;26.60;54.50
37204;DHT22;23098;48.054;10.636;2023-10-13T10:33:05;26.60;54.30
37204;DHT22;23098;48.054;10.636;2023-10-13T10:35:42;26.50;54.30
37204;DHT22;23098;48.054;10.636;2023-10-13T10:38:17;26.60;56.00
37204;DHT22;23098;48.054;10.636;2023-10-13T10:43:25;26.70;55.40
37204;DHT22;23098;48.054;10.636;2023-10-13T10:45:52;26.70;53.90
37204;DHT22;23098;48.054;10.636;2023-10-13T10:48:18;26.70;54.20
37204;DHT22;23098;48.054;10.636;2023-10-13T10:50:51;26.80;54.20
37204;DHT22;23098;48.054;10.636;2023-10-13T10:53:20;26.80;54.20
37204;DHT22;23098;48.054;10.636;2023-10-13T10:55:47;27.00;53.70
37204;DHT22;23098;48.054;10.636;2023-10-13T10:58:13;27.00;52.50
37204;DHT22;23098;48.054;10.636;2023-10-13T11:01:06;27.10;53.60
37204;DHT22;23098;48.054;10.636;2023-10-13T11:03:58;27.40;54.00
37204;DHT22;23098;48.054;10.636;2023-10-13T11:06:25;27.40;53.20
37204;DHT22;23098;48.054;10.636;2023-10-13T11:09:04;27.30;53.40
37204;DHT22;23098;48.054;10.636;2023-10-13T11:11:44;27.10;53.50
37204;DHT22;23098;48.054;10.636;2023-10-13T11:16:51;27.10;53.30
37204;DHT22;23098;48.054;10.636;2023-10-13T11:19:19;27.30;53.20
37204;DHT22;23098;48.054;10.636;2023-10-13T11:21:46;27.30;53.00
37204;DHT22;23098;48.054;10.636;2023-10-13T11:24:13;27.50;53.10
37204;DHT22;23098;48.054;10.636;2023-10-13T11:26:39;27.50;53.10
37204;DHT22;23098;48.054;10.636;2023-10-13T11:29:30;27.40;52.80
37204;DHT22;23098;48.054;10.636;2023-10-13T11:31:56;27.70;53.40
37204;DHT22;23098;48.054;10.636;2023-10-13T11:34:25;27.90;52.90
37204;DHT22;23098;48.054;10.636;2023-10-13T11:36:51;28.00;52.80
37204;DHT22;23098;48.054;10.636;2023-10-13T11:39:16;28.20;53.10
37204;DHT22;23098;48.054;10.636;2023-10-13T11:41:51;28.60;53.30
37204;DHT22;23098;48.054;10.636;2023-10-13T11:44:19;28.40;51.00
37204;DHT22;23098;48.054;10.636;2023-10-13T11:46:45;28.40;51.90
37204;DHT22;23098;48.054;10.636;2023-10-13T11:49:14;28.50;52.60
37204;DHT22;23098;48.054;10.636;2023-10-13T11:51:48;28.60;52.60
37204;DHT22;23098;48.054;10.636;2023-10-13T11:56:44;28.30;52.90
37204;DHT22;23098;48.054;10.636;2023-10-13T11:59:10;28.20;51.80
37204;DHT22;23098;48.054;10.636;2023-10-13T12:01:44;28.10;53.20
37204;DHT22;23098;48.054;10.636;2023-10-13T12:04:28;27.90;52.40
37204;DHT22;23098;48.054;10.636;2023-10-13T12:07:07;27.50;51.40
37204;DHT22;23098;48.054;10.636;2023-10-13T12:09:51;27.40;53.00
37204;DHT22;23098;48.054;10.636;2023-10-13T12:12:20;27.40;52.50
37204;DHT22;23098;48.054;10.636;2023-10-13T12:14:45;27.40;53.70
37204;DHT22;23098;48.054;10.636;2023-10-13T12:17:28;27.40;53.10
37204;DHT22;23098;48.054;10.636;2023-10-13T12:19:57;27.70;52.80
37204;DHT22;23098;48.054;10.636;2023-10-13T12:22:24;27.50;52.50
37204;DHT22;23098;48.054;10.636;2023-10-13T12:24:55;27.40;52.70
37204;DHT22;23098;48.054;10.636;2023-10-13T12:27:20;27.50;53.50
37204;DHT22;23098;48.054;10.636;2023-10-13T12:29:49;27.70;52.90
37204;DHT22;23098;48.054;10.636;2023-10-13T12:32:17;27.90;54.20
37204;DHT22;23098;48.054;10.636;2023-10-13T12:34:49;27.90;52.10
37204;DHT22;23098;48.054;10.636;2023-10-13T12:37:29;27.90;53.70
37204;DHT22;23098;48.054;10.636;2023-10-13T12:40:05;28.10;52.80
37204;DHT22;23098;48.054;10.636;2023-10-13T12:42:50;27.70;52.30
37204;DHT22;23098;48.054;10.636;2023-10-13T12:45:45;27.70;52.60
37204;DHT22;23098;48.054;10.636;2023-10-13T12:48:30;27.50;53.30
37204;DHT22;23098;48.054;10.636;2023-10-13T12:51:14;27.70;52.90
37204;DHT22;23098;48.054;10.636;2023-10-13T12:53:50;27.90;53.20
37204;DHT22;23098;48.054;10.636;2023-10-13T12:56:17;28.10;53.10
37204;DHT22;23098;48.054;10.636;2023-10-13T12:58:43;28.30;52.60
37204;DHT22;23098;48.054;10.636;2023-10-13T13:01:22;28.60;52.80
37204;DHT22;23098;48.054;10.636;2023-10-13T13:03:49;28.60;52.30
37204;DHT22;23098;48.054;10.636;2023-10-13T13:06:33;28.90;52.30
37204;DHT22;23098;48.054;10.636;2023-10-13T13:08:59;29.10;53.00
37204;DHT22;23098;48.054;10.636;2023-10-13T13:11:26;29.10;52.70
37204;DHT22;23098;48.054;10.636;2023-10-13T13:13:55;29.10;51.80
37204;DHT22;23098;48.054;10.636;2023-10-13T13:16:20;29.10;52.50
37204;DHT22;23098;48.054;10.636;2023-10-13T13:18:55;29.20;52.00
37204;DHT22;23098;48.054;10.636;2023-10-13T13:21:21;29.30;52.40
37204;DHT22;23098;48.054;10.636;2023-10-13T13:23:49;29.40;53.00
37204;DHT22;23098;48.054;10.636;2023-10-13T13:26:15;29.00;52.30
37204;DHT22;23098;48.054;10.636;2023-10-13T13:28:46;29.10;52.60
37204;DHT22;23098;48.054;10.636;2023-10-13T13:31:19;28.90;53.20
37204;DHT22;23098;48.054;10.636;2023-10-13T13:33:50;28.70;53.10
37204;DHT22;23098;48.054;10.636;2023-10-13T13:36:16;29.00;54.60
37204;DHT22;23098;48.054;10.636;2023-10-13T13:38:42;29.00;53.60
37204;DHT22;23098;48.054;10.636;2023-10-13T13:41:12;28.50;52.60
37204;DHT22;23098;48.054;10.636;2023-10-13T13:43:43;27.90;53.80
37204;DHT22;23098;48.054;10.636;2023-10-13T13:46:15;27.80;54.80
37204;DHT22;23098;48.054;10.636;2023-10-13T13:48:42;27.60;54.40
37204;DHT22;23098;48.054;10.636;2023-10-13T13:51:08;27.50;54.50
37204;DHT22;23098;48.054;10.636;2023-10-13T13:53:43;27.70;55.00
37204;DHT22;23098;48.054;10.636;2023-10-13T13:56:16;27.60;54.20
37204;DHT22;23098;48.054;10.636;2023-10-13T13:58:53;27.60;54.50
37204;DHT22;23098;48.054;10.636;2023-10-13T14:01:19;27.40;55.00
37204;DHT22;23098;48.054;10.636;2023-10-13T14:03:48;27.40;54.50
37204;DHT22;23098;48.054;10.636;2023-10-13T14:06:17;27.20;55.40
37204;DHT22;23098;48.054;10.636;2023-10-13T14:08:51;26.90;55.80
37204;DHT22;23098;48.054;10.636;2023-10-13T14:11:20;27.10;55.70
37204;DHT22;23098;48.054;10.636;2023-10-13T14:14:05;26.80;55.70
37204;DHT22;23098;48.054;10.636;2023-10-13T14:16:38;26.70;56.00
37204;DHT22;23098;48.054;10.636;2023-10-13T14:19:03;26.60;55.70
37204;DHT22;23098;48.054;10.636;2023-10-13T14:21:33;26.80;57.10
37204;DHT22;23098;48.054;10.636;2023-10-13T14:24:00;26.90;55.90
37204;DHT22;23098;48.054;10.636;2023-10-13T14:26:27;26.70;56.70
37204;DHT22;23098;48.054;10.636;2023-10-13T14:28:54;26.60;55.90
37204;DHT22;23098;48.054;10.636;2023-10-13T14:31:34;26.60;55.90
37204;DHT22;23098;48.054;10.636;2023-10-13T14:34:01;26.50;56.80
37204;DHT22;23098;48.054;10.636;2023-10-13T14:36:27;26.40;57.40
37204;DHT22;23098;48.054;10.636;2023-10-13T14:39:00;26.30;57.10
37204;DHT22;23098;48.054;10.636;2023-10-13T14:41:26;26.30;56.80
37204;DHT22;23098;48.054;10.636;2023-10-13T14:43:51;26.40;58.00
37204;DHT22;23098;48.054;10.636;2023-10-13T14:46:18;26.40;57.70
37204;DHT22;23098;48.054;10.636;2023-10-13T14:48:51;26.30;58.20
37204;DHT22;23098;48.054;10.636;2023-10-13T14:51:17;26.10;58.40
37204;DHT22;23098;48.054;10.636;2023-10-13T14:53:43;25.90;57.30
37204;DHT22;23098;48.054;10.636;2023-10-13T14:56:16;25.90;57.60
37204;DHT22;23098;48.054;10.636;2023-10-13T14:58:43;25.70;58.20
37204;DHT22;23098;48.054;10.636;2023-10-13T15:01:12;25.70;58.50
37204;DHT22;23098;48.054;10.636;2023-10-13T15:03:41;25.70;58.90
37204;DHT22;23098;48.054;10.636;2023-10-13T15:06:07;25.50;58.20
37204;DHT22;23098;48.054;10.636;2023-10-13T15:08:33;25.50;58.60
37204;DHT22;23098;48.054;10.636;2023-10-13T15:11:09;25.50;59.40
37204;DHT22;23098;48.054;10.636;2023-10-13T15:13:39;25.40;58.30
37204;DHT22;23098;48.054;10.636;2023-10-13T15:16:18;25.30;60.00
37204;DHT22;23098;48.054;10.636;2023-10-13T15:18:48;25.20;60.40
37204;DHT22;23098;48.054;10.636;2023-10-13T15:21:25;25.10;60.30
37204;DHT22;23098;48.054;10.636;2023-10-13T15:24:03;25.00;60.00
37204;DHT22;23098;48.054;10.636;2023-10-13T15:26:30;24.70;60.40
37204;DHT22;23098;48.054;10.636;2023-10-13T15:28:57;24.70;60.60
37204;DHT22;23098;48.054;10.636;2023-10-13T15:31:23;24.60;60.10
37204;DHT22;23098;48.054;10.636;2023-10-13T15:33:53;24.60;61.20
37204;DHT22;23098;48.054;10.636;2023-10-13T15:36:23;24.50;60.90
37204;DHT22;23098;48.054;10.636;2023-10-13T15:38:51;24.50;60.60
37204;DHT22;23098;48.054;10.636;2023-10-13T15:41:26;24.40;60.80
37204;DHT22;23098;48.054;10.636;2023-10-13T15:43:53;24.20;61.70
37204;DHT22;23098;48.054;10.636;2023-10-13T15:46:23;24.10;61.80
37204;DHT22;23098;48.054;10.636;2023-10-13T15:48:49;24.00;62.30
37204;DHT22;23098;48.054;10.636;2023-10-13T15:51:15;23.80;63.60
37204;DHT22;23098;48.054;10.636;2023-10-13T15:53:42;23.70;63.30
37204;DHT22;23098;48.054;10.636;2023-10-13T15:56:09;23.50;64.40
37204;DHT22;23098;48.054;10.636;2023-10-13T15:58:46;23.50;63.60
37204;DHT22;23098;48.054;10.636;2023-10-13T16:01:13;23.30;63.60
37204;DHT22;23098;48.054;10.636;2023-10-13T16:03:40;23.20;64.00
37204;DHT22;23098;48.054;10.636;2023-10-13T16:06:08;23.00;64.70
37204;DHT22;23098;48.054;10.636;2023-10-13T16:08:37;22.80;65.30
37204;DHT22;23098;48.054;10.636;2023-10-13T16:11:05;22.70;65.50
37204;DHT22;23098;48.054;10.636;2023-10-13T16:13:33;22.60;65.20